sensor_id;sensor_type;location;lat;lon;timestamp;P1;durP1;ratioP1;P2;durP2;ratioP2
66129;SDS011;52930;51.464;11.764;2022-12-07T00:00:00;24.77;;;8.70;;
66129;SDS011;52930;51.464;11.764;2022-12-07T00:02:26;23.40;;;9.00;;
66129;SDS011;52930;51.464;11.764;2022-12-07T00:04:52;21.80;;;8.18;;
66129;SDS011;52930;51.464;11.764;2022-12-07T00:07:17;26.90;;;8.77;;
66129;SDS011;52930;51.464;11.764;2022-12-07T00:09:42;19.73;;;7.33;;
66129;SDS011;52930;51.464;11.764;2022-12-07T00:12:08;23.83;;;9.27;;
66129;SDS011;52930;51.464;11.764;2022-12-07T00:14:33;26.97;;;9.20;;
66129;SDS011;52930;51.464;11.764;2022-12-07T00:16:58;20.58;;;7.32;;
66129;SDS011;52930;51.464;11.764;2022-12-07T00:19:24;25.15;;;8.75;;
66129;SDS011;52930;51.464;11.764;2022-12-07T00:21:49;19.83;;;7.40;;
66129;SDS011;52930;51.464;11.764;2022-12-07T00:24:14;21.30;;;8.47;;
66129;SDS011;52930;51.464;11.764;2022-12-07T00:26:41;24.10;;;9.00;;
66129;SDS011;52930;51.464;11.764;2022-12-07T00:29:17;21.15;;;8.07;;
66129;SDS011;52930;51.464;11.764;2022-12-07T00:31:43;25.15;;;8.95;;
66129;SDS011;52930;51.464;11.764;2022-12-07T00:34:14;24.37;;;8.57;;
66129;SDS011;52930;51.464;11.764;2022-12-07T00:36:41;21.98;;;8.30;;
66129;SDS011;52930;51.464;11.764;2022-12-07T00:39:06;24.93;;;8.83;;
66129;SDS011;52930;51.464;11.764;2022-12-07T00:41:32;23.87;;;8.80;;
66129;SDS011;52930;51.464;11.764;2022-12-07T00:43:57;25.97;;;8.73;;
66129;SDS011;52930;51.464;11.764;2022-12-07T00:46:23;22.83;;;8.47;;
66129;SDS011;52930;51.464;11.764;2022-12-07T00:48:49;21.77;;;8.25;;
66129;SDS011;52930;51.464;11.764;2022-12-07T00:51:16;25.23;;;9.15;;
66129;SDS011;52930;51.464;11.764;2022-12-07T00:53:43;25.95;;;9.07;;
66129;SDS011;52930;51.464;11.764;2022-12-07T00:56:11;26.77;;;9.37;;
66129;SDS011;52930;51.464;11.764;2022-12-07T00:58:37;22.65;;;8.88;;
66129;SDS011;52930;51.464;11.764;2022-12-07T01:01:03;24.17;;;9.40;;
66129;SDS011;52930;51.464;11.764;2022-12-07T01:03:30;25.50;;;9.63;;
66129;SDS011;52930;51.464;11.764;2022-12-07T01:05:55;25.20;;;9.00;;
66129;SDS011;52930;51.464;11.764;2022-12-07T01:08:21;22.57;;;8.77;;
66129;SDS011;52930;51.464;11.764;2022-12-07T01:10:47;22.90;;;9.00;;
66129;SDS011;52930;51.464;11.764;2022-12-07T01:13:13;23.77;;;8.45;;
66129;SDS011;52930;51.464;11.764;2022-12-07T01:15:42;26.90;;;9.87;;
66129;SDS011;52930;51.464;11.764;2022-12-07T01:18:08;26.45;;;8.93;;
66129;SDS011;52930;51.464;11.764;2022-12-07T01:20:34;25.83;;;9.20;;
66129;SDS011;52930;51.464;11.764;2022-12-07T01:22:59;27.95;;;9.98;;
66129;SDS011;52930;51.464;11.764;2022-12-07T01:25:25;26.87;;;9.50;;
66129;SDS011;52930;51.464;11.764;2022-12-07T01:27:50;26.93;;;10.10;;
66129;SDS011;52930;51.464;11.764;2022-12-07T01:30:16;27.05;;;9.30;;
66129;SDS011;52930;51.464;11.764;2022-12-07T01:32:41;25.50;;;9.23;;
66129;SDS011;52930;51.464;11.764;2022-12-07T01:35:07;27.50;;;8.97;;
66129;SDS011;52930;51.464;11.764;2022-12-07T01:37:36;25.80;;;8.90;;
66129;SDS011;52930;51.464;11.764;2022-12-07T01:40:02;29.70;;;9.43;;
66129;SDS011;52930;51.464;11.764;2022-12-07T01:42:28;22.92;;;8.88;;
66129;SDS011;52930;51.464;11.764;2022-12-07T01:48:03;23.45;;;8.60;;
66129;SDS011;52930;51.464;11.764;2022-12-07T01:50:29;23.13;;;8.25;;
66129;SDS011;52930;51.464;11.764;2022-12-07T01:52:56;26.50;;;9.23;;
66129;SDS011;52930;51.464;11.764;2022-12-07T01:55:23;24.13;;;9.00;;
66129;SDS011;52930;51.464;11.764;2022-12-07T01:57:49;23.02;;;8.05;;
66129;SDS011;52930;51.464;11.764;2022-12-07T02:00:16;28.27;;;9.07;;
66129;SDS011;52930;51.464;11.764;2022-12-07T02:02:51;28.93;;;8.53;;
66129;SDS011;52930;51.464;11.764;2022-12-07T02:05:18;28.20;;;9.40;;
66129;SDS011;52930;51.464;11.764;2022-12-07T02:07:44;22.85;;;7.63;;
66129;SDS011;52930;51.464;11.764;2022-12-07T02:10:30;23.53;;;8.17;;
66129;SDS011;52930;51.464;11.764;2022-12-07T02:13:10;25.13;;;8.80;;
66129;SDS011;52930;51.464;11.764;2022-12-07T02:15:51;22.42;;;8.10;;
66129;SDS011;52930;51.464;11.764;2022-12-07T02:42:31;21.47;;;7.57;;
66129;SDS011;52930;51.464;11.764;2022-12-07T02:44:59;20.77;;;7.07;;
66129;SDS011;52930;51.464;11.764;2022-12-07T02:47:26;18.88;;;7.28;;
66129;SDS011;52930;51.464;11.764;2022-12-07T02:49:52;21.55;;;6.70;;
66129;SDS011;52930;51.464;11.764;2022-12-07T02:52:17;18.23;;;6.87;;
66129;SDS011;52930;51.464;11.764;2022-12-07T02:54:43;20.87;;;6.30;;
66129;SDS011;52930;51.464;11.764;2022-12-07T02:59:52;18.70;;;7.22;;
66129;SDS011;52930;51.464;11.764;2022-12-07T03:02:41;18.65;;;6.57;;
66129;SDS011;52930;51.464;11.764;2022-12-07T03:08:21;17.83;;;7.00;;
66129;SDS011;52930;51.464;11.764;2022-12-07T03:13:33;17.35;;;6.68;;
66129;SDS011;52930;51.464;11.764;2022-12-07T03:18:37;17.17;;;7.15;;
66129;SDS011;52930;51.464;11.764;2022-12-07T03:21:07;18.97;;;6.80;;
66129;SDS011;52930;51.464;11.764;2022-12-07T03:23:37;20.23;;;6.75;;
66129;SDS011;52930;51.464;11.764;2022-12-07T03:26:04;15.57;;;6.43;;
66129;SDS011;52930;51.464;11.764;2022-12-07T03:28:34;17.08;;;6.40;;
66129;SDS011;52930;51.464;11.764;2022-12-07T03:31:03;17.95;;;6.60;;
66129;SDS011;52930;51.464;11.764;2022-12-07T03:33:39;16.93;;;6.80;;
66129;SDS011;52930;51.464;11.764;2022-12-07T03:36:11;14.35;;;6.38;;
66129;SDS011;52930;51.464;11.764;2022-12-07T03:38:48;16.23;;;6.63;;
66129;SDS011;52930;51.464;11.764;2022-12-07T03:41:24;16.30;;;6.00;;
66129;SDS011;52930;51.464;11.764;2022-12-07T03:43:51;15.43;;;6.28;;
66129;SDS011;52930;51.464;11.764;2022-12-07T03:46:27;18.27;;;6.10;;
66129;SDS011;52930;51.464;11.764;2022-12-07T03:48:59;17.90;;;6.55;;
66129;SDS011;52930;51.464;11.764;2022-12-07T03:51:35;18.33;;;6.20;;
66129;SDS011;52930;51.464;11.764;2022-12-07T03:56:33;16.38;;;6.55;;
66129;SDS011;52930;51.464;11.764;2022-12-07T03:58:59;15.77;;;6.67;;
66129;SDS011;52930;51.464;11.764;2022-12-07T04:01:25;16.92;;;6.03;;
66129;SDS011;52930;51.464;11.764;2022-12-07T04:03:50;24.70;;;6.70;;
66129;SDS011;52930;51.464;11.764;2022-12-07T04:06:16;13.00;;;5.17;;
66129;SDS011;52930;51.464;11.764;2022-12-07T04:08:41;17.42;;;6.43;;
66129;SDS011;52930;51.464;11.764;2022-12-07T04:11:07;15.80;;;5.73;;
66129;SDS011;52930;51.464;11.764;2022-12-07T04:13:32;16.00;;;6.17;;
66129;SDS011;52930;51.464;11.764;2022-12-07T04:16:18;16.48;;;6.13;;
66129;SDS011;52930;51.464;11.764;2022-12-07T04:18:43;15.43;;;6.40;;
66129;SDS011;52930;51.464;11.764;2022-12-07T04:21:08;17.20;;;6.40;;
66129;SDS011;52930;51.464;11.764;2022-12-07T04:23:34;17.30;;;5.90;;
66129;SDS011;52930;51.464;11.764;2022-12-07T04:25:59;15.77;;;6.37;;
66129;SDS011;52930;51.464;11.764;2022-12-07T04:28:24;16.25;;;5.85;;
66129;SDS011;52930;51.464;11.764;2022-12-07T04:30:50;16.50;;;6.22;;
66129;SDS011;52930;51.464;11.764;2022-12-07T04:33:15;14.30;;;6.10;;
66129;SDS011;52930;51.464;11.764;2022-12-07T04:35:42;17.73;;;5.83;;
66129;SDS011;52930;51.464;11.764;2022-12-07T04:38:07;15.32;;;5.63;;
66129;SDS011;52930;51.464;11.764;2022-12-07T04:40:33;14.17;;;5.47;;
66129;SDS011;52930;51.464;11.764;2022-12-07T04:42:58;16.07;;;6.17;;
66129;SDS011;52930;51.464;11.764;2022-12-07T04:45:23;14.97;;;5.97;;
66129;SDS011;52930;51.464;11.764;2022-12-07T04:47:49;14.40;;;5.63;;
66129;SDS011;52930;51.464;11.764;2022-12-07T04:50:14;13.77;;;5.30;;
66129;SDS011;52930;51.464;11.764;2022-12-07T04:52:39;14.97;;;5.53;;
66129;SDS011;52930;51.464;11.764;2022-12-07T04:55:05;14.40;;;5.80;;
66129;SDS011;52930;51.464;11.764;2022-12-07T04:57:30;17.87;;;6.07;;
66129;SDS011;52930;51.464;11.764;2022-12-07T04:59:56;14.40;;;5.25;;
66129;SDS011;52930;51.464;11.764;2022-12-07T05:02:21;14.85;;;5.72;;
66129;SDS011;52930;51.464;11.764;2022-12-07T05:04:47;11.23;;;4.40;;
66129;SDS011;52930;51.464;11.764;2022-12-07T05:07:12;12.33;;;4.63;;
66129;SDS011;52930;51.464;11.764;2022-12-07T05:09:38;13.27;;;5.10;;
66129;SDS011;52930;51.464;11.764;2022-12-07T05:12:03;12.57;;;4.70;;
66129;SDS011;52930;51.464;11.764;2022-12-07T05:14:28;11.50;;;4.72;;
66129;SDS011;52930;51.464;11.764;2022-12-07T05:16:54;8.85;;;3.42;;
66129;SDS011;52930;51.464;11.764;2022-12-07T05:19:19;10.17;;;4.03;;
66129;SDS011;52930;51.464;11.764;2022-12-07T05:21:45;9.47;;;3.10;;
66129;SDS011;52930;51.464;11.764;2022-12-07T05:24:11;14.57;;;5.43;;
66129;SDS011;52930;51.464;11.764;2022-12-07T05:26:37;14.13;;;5.60;;
66129;SDS011;52930;51.464;11.764;2022-12-07T05:29:03;12.80;;;5.00;;
66129;SDS011;52930;51.464;11.764;2022-12-07T05:31:28;16.20;;;6.60;;
66129;SDS011;52930;51.464;11.764;2022-12-07T05:33:54;12.50;;;4.90;;
66129;SDS011;52930;51.464;11.764;2022-12-07T05:36:20;13.68;;;5.40;;
66129;SDS011;52930;51.464;11.764;2022-12-07T05:38:45;14.13;;;5.10;;
66129;SDS011;52930;51.464;11.764;2022-12-07T05:41:15;12.70;;;4.88;;
66129;SDS011;52930;51.464;11.764;2022-12-07T05:43:59;19.23;;;6.03;;
66129;SDS011;52930;51.464;11.764;2022-12-07T05:46:25;12.52;;;4.15;;
66129;SDS011;52930;51.464;11.764;2022-12-07T05:48:50;15.73;;;5.97;;
66129;SDS011;52930;51.464;11.764;2022-12-07T05:51:16;16.40;;;6.27;;
66129;SDS011;52930;51.464;11.764;2022-12-07T05:53:41;16.40;;;6.30;;
66129;SDS011;52930;51.464;11.764;2022-12-07T05:56:06;19.80;;;7.03;;
66129;SDS011;52930;51.464;11.764;2022-12-07T05:58:32;18.07;;;5.93;;
66129;SDS011;52930;51.464;11.764;2022-12-07T06:01:16;13.45;;;5.43;;
66129;SDS011;52930;51.464;11.764;2022-12-07T06:03:41;13.60;;;5.37;;
66129;SDS011;52930;51.464;11.764;2022-12-07T06:06:07;18.88;;;6.90;;
66129;SDS011;52930;51.464;11.764;2022-12-07T06:08:32;13.00;;;4.20;;
66129;SDS011;52930;51.464;11.764;2022-12-07T06:10:57;14.63;;;5.87;;
66129;SDS011;52930;51.464;11.764;2022-12-07T06:13:41;14.23;;;5.33;;
66129;SDS011;52930;51.464;11.764;2022-12-07T06:16:06;15.05;;;4.90;;
66129;SDS011;52930;51.464;11.764;2022-12-07T06:18:32;12.67;;;4.47;;
66129;SDS011;52930;51.464;11.764;2022-12-07T06:20:57;16.10;;;6.70;;
66129;SDS011;52930;51.464;11.764;2022-12-07T06:23:23;12.20;;;4.67;;
66129;SDS011;52930;51.464;11.764;2022-12-07T06:25:48;19.17;;;7.30;;
66129;SDS011;52930;51.464;11.764;2022-12-07T06:28:13;20.40;;;7.03;;
66129;SDS011;52930;51.464;11.764;2022-12-07T06:30:39;15.93;;;5.80;;
66129;SDS011;52930;51.464;11.764;2022-12-07T06:33:04;22.17;;;7.78;;
66129;SDS011;52930;51.464;11.764;2022-12-07T06:35:29;21.02;;;6.88;;
66129;SDS011;52930;51.464;11.764;2022-12-07T06:37:57;18.73;;;7.43;;
66129;SDS011;52930;51.464;11.764;2022-12-07T06:40:23;22.10;;;7.32;;
66129;SDS011;52930;51.464;11.764;2022-12-07T06:42:48;16.67;;;6.25;;
66129;SDS011;52930;51.464;11.764;2022-12-07T06:45:13;17.43;;;5.87;;
66129;SDS011;52930;51.464;11.764;2022-12-07T06:47:39;20.97;;;7.87;;
66129;SDS011;52930;51.464;11.764;2022-12-07T06:50:04;14.27;;;5.57;;
66129;SDS011;52930;51.464;11.764;2022-12-07T06:52:32;20.38;;;7.80;;
66129;SDS011;52930;51.464;11.764;2022-12-07T06:54:58;19.77;;;6.70;;
66129;SDS011;52930;51.464;11.764;2022-12-07T06:57:23;19.87;;;8.27;;
66129;SDS011;52930;51.464;11.764;2022-12-07T06:59:49;18.05;;;6.25;;
66129;SDS011;52930;51.464;11.764;2022-12-07T07:02:14;13.70;;;5.43;;
66129;SDS011;52930;51.464;11.764;2022-12-07T07:04:39;13.60;;;5.60;;
66129;SDS011;52930;51.464;11.764;2022-12-07T07:07:05;19.63;;;7.17;;
66129;SDS011;52930;51.464;11.764;2022-12-07T07:09:30;13.67;;;5.17;;
66129;SDS011;52930;51.464;11.764;2022-12-07T07:11:56;16.40;;;5.87;;
66129;SDS011;52930;51.464;11.764;2022-12-07T07:14:21;19.33;;;7.17;;
66129;SDS011;52930;51.464;11.764;2022-12-07T07:16:46;23.48;;;8.45;;
66129;SDS011;52930;51.464;11.764;2022-12-07T07:19:12;19.77;;;7.53;;
66129;SDS011;52930;51.464;11.764;2022-12-07T07:21:37;20.10;;;7.60;;
66129;SDS011;52930;51.464;11.764;2022-12-07T07:24:03;18.40;;;7.17;;
66129;SDS011;52930;51.464;11.764;2022-12-07T07:26:28;21.57;;;7.30;;
66129;SDS011;52930;51.464;11.764;2022-12-07T07:28:55;27.83;;;8.40;;
66129;SDS011;52930;51.464;11.764;2022-12-07T07:31:20;14.33;;;5.07;;
66129;SDS011;52930;51.464;11.764;2022-12-07T07:33:46;20.73;;;7.77;;
66129;SDS011;52930;51.464;11.764;2022-12-07T07:36:11;24.42;;;8.63;;
66129;SDS011;52930;51.464;11.764;2022-12-07T07:38:37;18.70;;;6.60;;
66129;SDS011;52930;51.464;11.764;2022-12-07T07:41:02;12.57;;;4.50;;
66129;SDS011;52930;51.464;11.764;2022-12-07T07:43:28;18.67;;;6.60;;
66129;SDS011;52930;51.464;11.764;2022-12-07T07:45:53;15.97;;;6.13;;
66129;SDS011;52930;51.464;11.764;2022-12-07T07:48:19;19.53;;;7.37;;
66129;SDS011;52930;51.464;11.764;2022-12-07T07:50:44;21.60;;;6.90;;
66129;SDS011;52930;51.464;11.764;2022-12-07T07:53:09;17.83;;;6.20;;
66129;SDS011;52930;51.464;11.764;2022-12-07T07:55:35;21.57;;;7.30;;
66129;SDS011;52930;51.464;11.764;2022-12-07T07:58:00;21.23;;;7.17;;
66129;SDS011;52930;51.464;11.764;2022-12-07T08:00:26;21.17;;;7.90;;
66129;SDS011;52930;51.464;11.764;2022-12-07T08:02:51;21.30;;;7.77;;
66129;SDS011;52930;51.464;11.764;2022-12-07T08:05:16;23.73;;;7.97;;
66129;SDS011;52930;51.464;11.764;2022-12-07T08:07:42;22.63;;;9.05;;
66129;SDS011;52930;51.464;11.764;2022-12-07T08:10:09;20.58;;;7.78;;
66129;SDS011;52930;51.464;11.764;2022-12-07T08:12:36;20.80;;;8.05;;
66129;SDS011;52930;51.464;11.764;2022-12-07T08:15:03;21.73;;;8.20;;
66129;SDS011;52930;51.464;11.764;2022-12-07T08:17:28;24.67;;;7.07;;
66129;SDS011;52930;51.464;11.764;2022-12-07T08:19:54;22.80;;;8.53;;
66129;SDS011;52930;51.464;11.764;2022-12-07T08:22:19;21.13;;;6.83;;
66129;SDS011;52930;51.464;11.764;2022-12-07T08:24:44;19.13;;;7.60;;
66129;SDS011;52930;51.464;11.764;2022-12-07T08:27:10;19.57;;;6.90;;
66129;SDS011;52930;51.464;11.764;2022-12-07T08:29:35;20.03;;;6.70;;
66129;SDS011;52930;51.464;11.764;2022-12-07T08:32:01;19.33;;;7.22;;
66129;SDS011;52930;51.464;11.764;2022-12-07T08:34:26;17.57;;;6.67;;
66129;SDS011;52930;51.464;11.764;2022-12-07T08:36:52;18.83;;;6.90;;
66129;SDS011;52930;51.464;11.764;2022-12-07T08:39:17;19.40;;;7.10;;
66129;SDS011;52930;51.464;11.764;2022-12-07T08:41:42;21.17;;;7.30;;
66129;SDS011;52930;51.464;11.764;2022-12-07T08:44:08;17.02;;;6.53;;
66129;SDS011;52930;51.464;11.764;2022-12-07T08:49:02;20.67;;;7.00;;
66129;SDS011;52930;51.464;11.764;2022-12-07T08:51:30;18.83;;;6.95;;
66129;SDS011;52930;51.464;11.764;2022-12-07T08:53:55;22.53;;;7.93;;
66129;SDS011;52930;51.464;11.764;2022-12-07T08:56:23;21.17;;;7.55;;
66129;SDS011;52930;51.464;11.764;2022-12-07T08:58:49;22.60;;;6.45;;
66129;SDS011;52930;51.464;11.764;2022-12-07T09:01:14;20.63;;;7.23;;
66129;SDS011;52930;51.464;11.764;2022-12-07T09:03:40;17.60;;;5.63;;
66129;SDS011;52930;51.464;11.764;2022-12-07T09:06:05;16.90;;;5.55;;
66129;SDS011;52930;51.464;11.764;2022-12-07T09:08:33;21.35;;;6.78;;
66129;SDS011;52930;51.464;11.764;2022-12-07T09:11:01;14.70;;;5.45;;
66129;SDS011;52930;51.464;11.764;2022-12-07T09:13:27;15.77;;;5.47;;
66129;SDS011;52930;51.464;11.764;2022-12-07T09:15:52;17.83;;;5.17;;
66129;SDS011;52930;51.464;11.764;2022-12-07T09:18:17;14.83;;;6.47;;
66129;SDS011;52930;51.464;11.764;2022-12-07T09:20:43;19.83;;;6.57;;
66129;SDS011;52930;51.464;11.764;2022-12-07T09:23:08;15.63;;;5.93;;
66129;SDS011;52930;51.464;11.764;2022-12-07T09:25:34;20.60;;;6.03;;
66129;SDS011;52930;51.464;11.764;2022-12-07T09:27:59;14.50;;;5.00;;
66129;SDS011;52930;51.464;11.764;2022-12-07T09:30:25;19.23;;;6.97;;
66129;SDS011;52930;51.464;11.764;2022-12-07T09:32:54;19.73;;;5.28;;
66129;SDS011;52930;51.464;11.764;2022-12-07T09:35:21;13.57;;;3.78;;
66129;SDS011;52930;51.464;11.764;2022-12-07T09:37:46;6.73;;;2.23;;
66129;SDS011;52930;51.464;11.764;2022-12-07T09:40:12;14.82;;;4.90;;
66129;SDS011;52930;51.464;11.764;2022-12-07T09:42:39;16.63;;;5.70;;
66129;SDS011;52930;51.464;11.764;2022-12-07T09:45:12;15.90;;;5.07;;
66129;SDS011;52930;51.464;11.764;2022-12-07T09:47:40;11.77;;;4.53;;
66129;SDS011;52930;51.464;11.764;2022-12-07T09:50:16;16.10;;;5.17;;
66129;SDS011;52930;51.464;11.764;2022-12-07T09:52:44;15.88;;;5.07;;
66129;SDS011;52930;51.464;11.764;2022-12-07T09:55:13;13.70;;;4.95;;
66129;SDS011;52930;51.464;11.764;2022-12-07T09:57:48;13.48;;;4.68;;
66129;SDS011;52930;51.464;11.764;2022-12-07T10:00:17;14.23;;;4.30;;
66129;SDS011;52930;51.464;11.764;2022-12-07T10:02:46;10.85;;;3.95;;
66129;SDS011;52930;51.464;11.764;2022-12-07T10:05:14;10.10;;;3.35;;
66129;SDS011;52930;51.464;11.764;2022-12-07T10:07:47;16.77;;;5.67;;
66129;SDS011;52930;51.464;11.764;2022-12-07T10:10:27;11.75;;;3.42;;
66129;SDS011;52930;51.464;11.764;2022-12-07T10:13:05;16.65;;;4.38;;
66129;SDS011;52930;51.464;11.764;2022-12-07T10:23:40;13.93;;;4.80;;
66129;SDS011;52930;51.464;11.764;2022-12-07T10:31:51;12.48;;;4.85;;
66129;SDS011;52930;51.464;11.764;2022-12-07T10:34:23;13.80;;;4.80;;
66129;SDS011;52930;51.464;11.764;2022-12-07T10:36:52;15.43;;;5.10;;
66129;SDS011;52930;51.464;11.764;2022-12-07T10:39:22;11.20;;;4.78;;
66129;SDS011;52930;51.464;11.764;2022-12-07T10:41:58;11.70;;;4.20;;
66129;SDS011;52930;51.464;11.764;2022-12-07T10:44:26;12.07;;;4.40;;
66129;SDS011;52930;51.464;11.764;2022-12-07T10:47:03;11.40;;;2.38;;
66129;SDS011;52930;51.464;11.764;2022-12-07T10:54:51;10.18;;;3.65;;
66129;SDS011;52930;51.464;11.764;2022-12-07T11:05:28;12.15;;;3.67;;
66129;SDS011;52930;51.464;11.764;2022-12-07T11:08:15;11.15;;;3.55;;
66129;SDS011;52930;51.464;11.764;2022-12-07T11:10:53;6.95;;;2.53;;
66129;SDS011;52930;51.464;11.764;2022-12-07T11:13:36;6.78;;;1.90;;
66129;SDS011;52930;51.464;11.764;2022-12-07T11:18:46;8.70;;;2.47;;
66129;SDS011;52930;51.464;11.764;2022-12-07T11:30:17;5.83;;;1.97;;
66129;SDS011;52930;51.464;11.764;2022-12-07T11:38:11;8.32;;;1.60;;
66129;SDS011;52930;51.464;11.764;2022-12-07T11:40:40;4.80;;;1.83;;
66129;SDS011;52930;51.464;11.764;2022-12-07T11:43:27;4.60;;;1.43;;
66129;SDS011;52930;51.464;11.764;2022-12-07T11:46:04;4.38;;;1.35;;
66129;SDS011;52930;51.464;11.764;2022-12-07T11:48:37;5.90;;;1.60;;
66129;SDS011;52930;51.464;11.764;2022-12-07T11:51:03;4.72;;;1.42;;
66129;SDS011;52930;51.464;11.764;2022-12-07T11:53:33;4.00;;;1.27;;
66129;SDS011;52930;51.464;11.764;2022-12-07T11:58:48;4.05;;;1.25;;
66129;SDS011;52930;51.464;11.764;2022-12-07T12:06:47;9.15;;;2.20;;
66129;SDS011;52930;51.464;11.764;2022-12-07T12:09:20;4.60;;;1.33;;
66129;SDS011;52930;51.464;11.764;2022-12-07T12:23:10;6.60;;;2.20;;
66129;SDS011;52930;51.464;11.764;2022-12-07T12:25:45;5.82;;;1.73;;
66129;SDS011;52930;51.464;11.764;2022-12-07T12:28:20;4.17;;;1.00;;
66129;SDS011;52930;51.464;11.764;2022-12-07T12:33:46;7.00;;;1.30;;
66129;SDS011;52930;51.464;11.764;2022-12-07T12:46:54;6.55;;;1.70;;
66129;SDS011;52930;51.464;11.764;2022-12-07T12:51:54;6.47;;;1.90;;
66129;SDS011;52930;51.464;11.764;2022-12-07T12:54:24;7.25;;;2.10;;
66129;SDS011;52930;51.464;11.764;2022-12-07T13:10:21;7.23;;;1.90;;
66129;SDS011;52930;51.464;11.764;2022-12-07T13:20:56;6.75;;;2.00;;
66129;SDS011;52930;51.464;11.764;2022-12-07T13:23:38;5.97;;;1.80;;
66129;SDS011;52930;51.464;11.764;2022-12-07T13:28:52;4.65;;;1.60;;
66129;SDS011;52930;51.464;11.764;2022-12-07T13:37:22;6.33;;;2.00;;
66129;SDS011;52930;51.464;11.764;2022-12-07T13:42:24;6.32;;;1.95;;
66129;SDS011;52930;51.464;11.764;2022-12-07T13:44:57;5.15;;;1.50;;
66129;SDS011;52930;51.464;11.764;2022-12-07T13:47:35;7.05;;;2.30;;
66129;SDS011;52930;51.464;11.764;2022-12-07T13:52:49;6.88;;;1.92;;
66129;SDS011;52930;51.464;11.764;2022-12-07T13:55:15;9.13;;;2.28;;
66129;SDS011;52930;51.464;11.764;2022-12-07T13:57:44;6.35;;;1.65;;
66129;SDS011;52930;51.464;11.764;2022-12-07T14:00:18;8.95;;;1.98;;
66129;SDS011;52930;51.464;11.764;2022-12-07T14:02:59;5.60;;;1.90;;
66129;SDS011;52930;51.464;11.764;2022-12-07T14:05:33;6.40;;;1.80;;
66129;SDS011;52930;51.464;11.764;2022-12-07T14:08:00;5.80;;;1.80;;
66129;SDS011;52930;51.464;11.764;2022-12-07T14:10:41;6.03;;;1.40;;
66129;SDS011;52930;51.464;11.764;2022-12-07T14:13:32;5.80;;;1.75;;
66129;SDS011;52930;51.464;11.764;2022-12-07T14:15:59;7.40;;;1.80;;
66129;SDS011;52930;51.464;11.764;2022-12-07T14:18:29;5.50;;;1.40;;
66129;SDS011;52930;51.464;11.764;2022-12-07T14:21:13;6.23;;;1.60;;
66129;SDS011;52930;51.464;11.764;2022-12-07T14:23:41;4.30;;;1.60;;
66129;SDS011;52930;51.464;11.764;2022-12-07T14:26:13;7.25;;;1.42;;
66129;SDS011;52930;51.464;11.764;2022-12-07T14:28:40;11.15;;;1.85;;
66129;SDS011;52930;51.464;11.764;2022-12-07T14:33:38;9.18;;;1.70;;
66129;SDS011;52930;51.464;11.764;2022-12-07T14:36:04;8.20;;;1.63;;
66129;SDS011;52930;51.464;11.764;2022-12-07T14:38:29;8.17;;;1.73;;
66129;SDS011;52930;51.464;11.764;2022-12-07T14:40:55;4.90;;;1.50;;
66129;SDS011;52930;51.464;11.764;2022-12-07T14:43:41;9.13;;;1.83;;
66129;SDS011;52930;51.464;11.764;2022-12-07T14:46:06;6.70;;;1.70;;
66129;SDS011;52930;51.464;11.764;2022-12-07T14:48:32;5.10;;;1.02;;
66129;SDS011;52930;51.464;11.764;2022-12-07T14:50:57;6.63;;;2.20;;
66129;SDS011;52930;51.464;11.764;2022-12-07T14:53:24;6.43;;;1.60;;
66129;SDS011;52930;51.464;11.764;2022-12-07T14:55:54;7.20;;;1.58;;
66129;SDS011;52930;51.464;11.764;2022-12-07T14:58:19;7.80;;;1.80;;
66129;SDS011;52930;51.464;11.764;2022-12-07T15:00:45;5.83;;;1.47;;
66129;SDS011;52930;51.464;11.764;2022-12-07T15:03:12;6.55;;;2.28;;
66129;SDS011;52930;51.464;11.764;2022-12-07T15:05:38;7.93;;;1.80;;
66129;SDS011;52930;51.464;11.764;2022-12-07T15:08:04;6.35;;;1.83;;
66129;SDS011;52930;51.464;11.764;2022-12-07T15:10:31;11.80;;;2.00;;
66129;SDS011;52930;51.464;11.764;2022-12-07T15:13:02;8.50;;;1.55;;
66129;SDS011;52930;51.464;11.764;2022-12-07T15:15:46;7.95;;;1.98;;
66129;SDS011;52930;51.464;11.764;2022-12-07T15:18:13;5.90;;;1.70;;
66129;SDS011;52930;51.464;11.764;2022-12-07T15:20:38;7.03;;;1.70;;
66129;SDS011;52930;51.464;11.764;2022-12-07T15:23:04;5.23;;;1.50;;
66129;SDS011;52930;51.464;11.764;2022-12-07T15:25:29;8.63;;;1.92;;
66129;SDS011;52930;51.464;11.764;2022-12-07T15:27:56;5.05;;;0.80;;
66129;SDS011;52930;51.464;11.764;2022-12-07T15:30:21;5.20;;;1.10;;
66129;SDS011;52930;51.464;11.764;2022-12-07T15:32:50;7.10;;;1.60;;
66129;SDS011;52930;51.464;11.764;2022-12-07T15:35:16;6.13;;;1.83;;
66129;SDS011;52930;51.464;11.764;2022-12-07T15:37:42;4.40;;;1.23;;
66129;SDS011;52930;51.464;11.764;2022-12-07T15:40:08;2.90;;;0.80;;
66129;SDS011;52930;51.464;11.764;2022-12-07T15:42:37;5.47;;;1.73;;
66129;SDS011;52930;51.464;11.764;2022-12-07T15:45:03;4.88;;;1.38;;
66129;SDS011;52930;51.464;11.764;2022-12-07T15:47:31;5.87;;;1.40;;
66129;SDS011;52930;51.464;11.764;2022-12-07T15:50:01;4.05;;;1.02;;
66129;SDS011;52930;51.464;11.764;2022-12-07T15:52:31;6.60;;;1.55;;
66129;SDS011;52930;51.464;11.764;2022-12-07T15:54:57;6.63;;;1.70;;
66129;SDS011;52930;51.464;11.764;2022-12-07T15:57:22;6.67;;;1.90;;
66129;SDS011;52930;51.464;11.764;2022-12-07T15:59:48;5.97;;;1.80;;
66129;SDS011;52930;51.464;11.764;2022-12-07T16:02:13;7.73;;;2.13;;
66129;SDS011;52930;51.464;11.764;2022-12-07T16:04:39;7.47;;;1.52;;
66129;SDS011;52930;51.464;11.764;2022-12-07T16:07:04;5.87;;;2.03;;
66129;SDS011;52930;51.464;11.764;2022-12-07T16:09:30;6.82;;;1.70;;
66129;SDS011;52930;51.464;11.764;2022-12-07T16:11:55;10.30;;;2.05;;
66129;SDS011;52930;51.464;11.764;2022-12-07T16:14:21;7.17;;;1.90;;
66129;SDS011;52930;51.464;11.764;2022-12-07T16:16:47;7.20;;;1.63;;
66129;SDS011;52930;51.464;11.764;2022-12-07T16:19:12;8.68;;;2.30;;
66129;SDS011;52930;51.464;11.764;2022-12-07T16:21:38;8.33;;;2.80;;
66129;SDS011;52930;51.464;11.764;2022-12-07T16:24:03;9.77;;;2.30;;
66129;SDS011;52930;51.464;11.764;2022-12-07T16:26:30;10.60;;;3.05;;
66129;SDS011;52930;51.464;11.764;2022-12-07T16:28:56;7.65;;;2.75;;
66129;SDS011;52930;51.464;11.764;2022-12-07T16:31:23;10.77;;;2.75;;
66129;SDS011;52930;51.464;11.764;2022-12-07T16:33:50;7.97;;;2.17;;
66129;SDS011;52930;51.464;11.764;2022-12-07T16:36:17;15.40;;;2.75;;
66129;SDS011;52930;51.464;11.764;2022-12-07T16:38:43;9.55;;;2.75;;
66129;SDS011;52930;51.464;11.764;2022-12-07T16:41:09;5.13;;;1.43;;
66129;SDS011;52930;51.464;11.764;2022-12-07T16:43:35;8.57;;;2.90;;
66129;SDS011;52930;51.464;11.764;2022-12-07T16:46:01;7.87;;;2.20;;
66129;SDS011;52930;51.464;11.764;2022-12-07T16:48:27;7.75;;;1.90;;
66129;SDS011;52930;51.464;11.764;2022-12-07T16:50:52;5.63;;;1.98;;
66129;SDS011;52930;51.464;11.764;2022-12-07T16:53:21;8.30;;;2.42;;
66129;SDS011;52930;51.464;11.764;2022-12-07T16:55:47;10.43;;;2.25;;
66129;SDS011;52930;51.464;11.764;2022-12-07T16:58:14;7.72;;;2.03;;
66129;SDS011;52930;51.464;11.764;2022-12-07T17:00:40;6.20;;;2.17;;
66129;SDS011;52930;51.464;11.764;2022-12-07T17:03:06;9.88;;;2.83;;
66129;SDS011;52930;51.464;11.764;2022-12-07T17:05:32;11.20;;;2.90;;
66129;SDS011;52930;51.464;11.764;2022-12-07T17:07:58;9.50;;;3.03;;
66129;SDS011;52930;51.464;11.764;2022-12-07T17:10:24;10.48;;;2.60;;